createdAt,value
2022-10-30T00:01:19.426Z,100766.71
2022-10-30T00:03:47.406Z,100758.75
2022-10-30T00:06:15.119Z,100758.27
2022-10-30T00:08:42.976Z,100770.30
2022-10-30T00:11:12.768Z,100770.23
2022-10-30T00:13:44.686Z,100770.25
2022-10-30T00:16:12.463Z,100773.57
2022-10-30T00:18:42.358Z,100778.77
2022-10-30T00:21:12.732Z,100766.26
2022-10-30T00:23:52.814Z,100760.10
2022-10-30T00:26:23.069Z,100752.39
2022-10-30T00:28:52.017Z,100748.86
2022-10-30T00:31:20.641Z,100749.95
2022-10-30T00:33:52.732Z,100744.06
2022-10-30T00:42:57.318Z,100748.98
2022-10-30T00:45:24.711Z,100754.92
2022-10-30T00:47:58.041Z,100757.66
2022-10-30T00:50:37.077Z,100748.89
2022-10-30T00:53:11.787Z,100740.52
2022-10-30T00:55:43.259Z,100742.95
2022-10-30T00:58:14.755Z,100750.14
2022-10-30T01:00:45.646Z,100751.33
2022-10-30T01:03:12.701Z,100751.38
2022-10-30T01:05:39.901Z,100742.64
2022-10-30T01:08:06.140Z,100747.45
2022-10-30T01:10:32.830Z,100750.45
2022-10-30T01:13:00.177Z,100748.50
2022-10-30T01:15:32.455Z,100745.87
2022-10-30T01:18:04.899Z,100753.21
2022-10-30T01:20:56.093Z,100752.60
2022-10-30T01:24:01.150Z,100743.89
2022-10-30T01:26:30.915Z,100743.38
2022-10-30T01:29:27.298Z,100742.72
2022-10-30T01:32:02.433Z,100734.44
2022-10-30T01:37:35.847Z,100737.48
2022-10-30T01:40:14.273Z,100741.85
2022-10-30T01:42:51.121Z,100744.39
2022-10-30T01:45:39.535Z,100744.92
2022-10-30T01:48:35.433Z,100742.40
2022-10-30T01:51:20.976Z,100746.21
2022-10-30T01:54:09.703Z,100748.55
2022-10-30T01:56:38.519Z,100742.62
2022-10-30T01:59:14.370Z,100741.50
2022-10-30T02:01:40.809Z,100752.02
2022-10-30T02:04:10.445Z,100763.64
2022-10-30T02:06:37.615Z,100767.60
2022-10-30T02:09:05.323Z,100764.65
2022-10-30T02:11:33.955Z,100760.83
2022-10-30T02:14:04.279Z,100763.66
2022-10-30T02:16:34.567Z,100759.31
2022-10-30T02:19:02.029Z,100758.84
2022-10-30T02:21:28.507Z,100752.98
2022-10-30T02:23:54.788Z,100752.13
2022-10-30T02:26:21.277Z,100747.63
2022-10-30T02:28:47.846Z,100754.88
2022-10-30T02:31:14.071Z,100758.02
2022-10-30T02:33:45.251Z,100759.35
2022-10-30T02:36:14.741Z,100753.28
2022-10-30T02:38:42.433Z,100751.34
2022-10-30T02:41:09.246Z,100754.19
2022-10-30T02:43:36.693Z,100757.17
2022-10-30T02:46:03.592Z,100758.24
2022-10-30T02:48:30.628Z,100745.33
2022-10-30T02:51:00.679Z,100752.73
2022-10-30T02:53:28.351Z,100752.45
2022-10-30T02:55:55.490Z,100758.48
2022-10-30T02:58:22.224Z,100756.46
2022-10-30T03:00:48.544Z,100755.85
2022-10-30T03:03:17.528Z,100754.81
2022-10-30T03:05:46.490Z,100756.80
2022-10-30T03:08:12.806Z,100754.17
2022-10-30T03:10:39.452Z,100754.66
2022-10-30T03:13:05.692Z,100755.12
2022-10-30T03:15:32.052Z,100762.42
2022-10-30T03:17:58.541Z,100757.88
2022-10-30T03:20:25.070Z,100757.59
2022-10-30T03:22:51.320Z,100756.80
2022-10-30T03:25:22.835Z,100757.48
2022-10-30T03:27:52.368Z,100754.91
2022-10-30T03:30:18.598Z,100756.16
2022-10-30T03:32:44.948Z,100751.36
2022-10-30T03:35:11.272Z,100748.16
2022-10-30T03:37:37.587Z,100754.86
2022-10-30T03:40:04.206Z,100757.69
2022-10-30T03:42:31.262Z,100756.20
2022-10-30T03:44:57.527Z,100761.11
2022-10-30T03:47:23.784Z,100770.98
2022-10-30T03:49:50.006Z,100777.05
2022-10-30T03:52:18.444Z,100776.40
2022-10-30T03:54:44.765Z,100778.08
2022-10-30T03:57:12.464Z,100785.96
2022-10-30T03:59:44.253Z,100790.13
2022-10-30T04:02:30.954Z,100795.52
2022-10-30T04:04:57.251Z,100797.98
2022-10-30T04:07:23.624Z,100806.02
2022-10-30T04:09:50.186Z,100804.86
2022-10-30T04:12:16.477Z,100802.80
2022-10-30T04:14:42.686Z,100804.13
2022-10-30T04:19:41.135Z,100803.11
2022-10-30T04:22:07.560Z,100796.74
2022-10-30T04:24:34.520Z,100799.05
2022-10-30T04:27:01.452Z,100793.63
2022-10-30T04:29:27.714Z,100793.56
2022-10-30T04:31:53.967Z,100789.14
2022-10-30T04:34:20.393Z,100790.04
2022-10-30T04:36:47.012Z,100786.05
2022-10-30T04:39:13.433Z,100783.55
2022-10-30T04:41:41.093Z,100783.38
2022-10-30T04:44:13.043Z,100780.57
2022-10-30T04:46:39.645Z,100783.64
2022-10-30T04:49:09.409Z,100782.75
2022-10-30T04:51:35.744Z,100782.70
2022-10-30T04:54:03.273Z,100777.08
2022-10-30T04:56:32.329Z,100774.55
2022-10-30T04:58:59.449Z,100769.89
2022-10-30T05:01:25.978Z,100769.63
2022-10-30T05:03:54.689Z,100768.51
2022-10-30T05:06:22.340Z,100770.23
2022-10-30T05:08:49.807Z,100772.59
2022-10-30T05:11:24.786Z,100771.50
2022-10-30T05:13:51.561Z,100771.39
2022-10-30T05:16:18.163Z,100775.36
2022-10-30T05:18:44.422Z,100768.23
2022-10-30T05:21:11.746Z,100771.17
2022-10-30T05:23:38.656Z,100772.38
2022-10-30T05:26:05.564Z,100776.35
2022-10-30T05:28:32.448Z,100787.73
2022-10-30T05:30:58.893Z,100789.86
2022-10-30T05:33:43.741Z,100784.33
2022-10-30T05:36:10.878Z,100788.27
2022-10-30T05:38:37.096Z,100786.50
2022-10-30T05:41:03.761Z,100786.79
2022-10-30T05:43:30.605Z,100789.13
2022-10-30T05:45:56.968Z,100789.98
2022-10-30T05:48:23.424Z,100799.99
2022-10-30T05:50:50.097Z,100807.04
2022-10-30T05:53:24.510Z,100816.05
2022-10-30T05:55:56.285Z,100815.38
2022-10-30T05:58:23.403Z,100812.58
2022-10-30T06:00:50.328Z,100810.98
2022-10-30T06:03:20.027Z,100805.56
2022-10-30T06:05:47.360Z,100802.63
2022-10-30T06:08:17.137Z,100801.32
2022-10-30T06:10:44.583Z,100795.08
2022-10-30T06:13:17.107Z,100793.31
2022-10-30T06:15:56.561Z,100794.66
2022-10-30T06:18:24.794Z,100807.67
2022-10-30T06:20:56.719Z,100814.66
2022-10-30T06:23:23.043Z,100803.90
2022-10-30T06:25:54.873Z,100795.08
2022-10-30T06:28:25.872Z,100800.63
2022-10-30T06:30:53.847Z,100798.61
2022-10-30T06:33:20.468Z,100793.84
2022-10-30T06:35:50.840Z,100790.42
2022-10-30T06:38:18.224Z,100797.75
2022-10-30T06:40:45.510Z,100806.23
2022-10-30T06:43:30.818Z,100804.14
2022-10-30T06:46:04.824Z,100802.83
2022-10-30T06:48:32.577Z,100816.85
2022-10-30T06:51:02.395Z,100821.83
2022-10-30T06:53:31.691Z,100822.49
2022-10-30T06:56:18.049Z,100820.43
2022-10-30T06:59:23.656Z,100825.89
2022-10-30T07:01:55.743Z,100826.94
2022-10-30T07:04:26.072Z,100816.10
2022-10-30T07:06:54.624Z,100813.89
2022-10-30T07:09:21.178Z,100815.41
2022-10-30T07:11:52.155Z,100813.26
2022-10-30T07:14:26.961Z,100807.73
2022-10-30T07:17:13.888Z,100808.50
2022-10-30T07:19:43.051Z,100822.84
2022-10-30T07:22:09.507Z,100825.43
2022-10-30T07:24:37.707Z,100833.91
2022-10-30T07:27:28.240Z,100835.10
2022-10-30T07:30:21.035Z,100834.29
2022-10-30T07:33:08.350Z,100837.96
2022-10-30T07:35:55.585Z,100826.67
2022-10-30T07:38:40.402Z,100817.22
2022-10-30T07:41:32.888Z,100812.87
2022-10-30T07:44:17.812Z,100806.98
2022-10-30T07:46:54.884Z,100802.27
2022-10-30T07:49:44.168Z,100808.64
2022-10-30T07:52:16.336Z,100814.60
2022-10-30T07:54:45.943Z,100816.45
2022-10-30T07:57:42.016Z,100818.64
2022-10-30T08:00:28.448Z,100818.45
2022-10-30T08:03:00.635Z,100821.79
2022-10-30T08:05:35.151Z,100818.80
2022-10-30T08:08:08.214Z,100817.45
2022-10-30T08:10:35.407Z,100808.04
2022-10-30T08:13:02.335Z,100803.73
2022-10-30T08:15:28.823Z,100804.76
2022-10-30T08:17:55.378Z,100804.41
2022-10-30T08:20:23.941Z,100806.41
2022-10-30T08:22:55.905Z,100810.99
2022-10-30T08:25:28.065Z,100805.95
2022-10-30T08:28:00.357Z,100804.50
2022-10-30T08:30:33.683Z,100807.56
2022-10-30T08:33:02.574Z,100814.11
2022-10-30T08:35:52.922Z,100820.77
2022-10-30T08:38:19.761Z,100815.23
2022-10-30T08:40:52.666Z,100811.13
2022-10-30T08:43:19.995Z,100814.23
2022-10-30T08:45:46.617Z,100814.48
2022-10-30T08:48:15.664Z,100820.33
2022-10-30T08:50:44.038Z,100823.79
2022-10-30T08:53:14.305Z,100825.35
2022-10-30T08:55:41.472Z,100830.04
2022-10-30T08:58:14.243Z,100832.55
2022-10-30T09:00:40.724Z,100836.45
2022-10-30T09:03:10.037Z,100832.05
2022-10-30T09:06:00.405Z,100821.89
2022-10-30T09:08:45.900Z,100816.06
2022-10-30T09:11:32.430Z,100811.39
2022-10-30T09:13:58.897Z,100812.17
2022-10-30T09:16:25.329Z,100819.19
2022-10-30T09:18:51.627Z,100821.86
2022-10-30T09:21:17.984Z,100823.22
2022-10-30T09:23:47.864Z,100823.17
2022-10-30T09:26:32.947Z,100817.23
2022-10-30T09:29:22.620Z,100817.16
2022-10-30T09:32:13.062Z,100814.33
2022-10-30T09:34:49.041Z,100819.13
2022-10-30T09:37:25.921Z,100819.87
2022-10-30T09:39:54.841Z,100820.27
2022-10-30T09:42:46.561Z,100821.50
2022-10-30T09:45:42.605Z,100830.63
2022-10-30T09:48:24.231Z,100833.78
2022-10-30T09:51:14.100Z,100831.90
2022-10-30T09:54:08.705Z,100831.89
2022-10-30T09:57:01.272Z,100830.24
2022-10-30T09:59:35.774Z,100830.89
2022-10-30T10:02:33.756Z,100828.30
2022-10-30T10:05:06.825Z,100823.52
2022-10-30T10:08:17.992Z,100819.02
2022-10-30T10:11:18.120Z,100817.73
2022-10-30T10:14:01.167Z,100812.91
2022-10-30T10:16:35.964Z,100811.06
2022-10-30T10:19:14.605Z,100804.99
2022-10-30T10:22:00.761Z,100811.39
2022-10-30T10:24:36.583Z,100816.77
2022-10-30T10:27:41.968Z,100816.41
2022-10-30T10:30:14.980Z,100812.56
2022-10-30T10:33:10.120Z,100809.05
2022-10-30T10:35:56.705Z,100821.34
2022-10-30T10:38:22.982Z,100826.94
2022-10-30T10:40:55.657Z,100823.90
2022-10-30T10:43:36.340Z,100821.02
2022-10-30T10:46:08.662Z,100821.91
2022-10-30T10:48:56.676Z,100817.65
2022-10-30T10:51:31.073Z,100820.41
2022-10-30T10:54:07.290Z,100818.34
2022-10-30T10:56:37.453Z,100815.63
2022-10-30T10:59:12.097Z,100809.55
2022-10-30T11:01:40.555Z,100809.48
2022-10-30T11:04:38.145Z,100810.73
2022-10-30T11:07:21.064Z,100810.79
2022-10-30T11:09:51.757Z,100806.77
2022-10-30T11:12:24.914Z,100811.95
2022-10-30T11:14:51.119Z,100808.88
2022-10-30T11:17:24.074Z,100806.33
2022-10-30T11:19:56.696Z,100814.60
2022-10-30T11:22:33.148Z,100820.20
2022-10-30T11:25:26.955Z,100819.54
2022-10-30T11:27:59.666Z,100805.69
2022-10-30T11:30:28.051Z,100794.36
2022-10-30T11:32:57.232Z,100792.02
2022-10-30T11:35:24.775Z,100789.88
2022-10-30T11:38:11.763Z,100790.67
2022-10-30T11:40:40.400Z,100798.30
2022-10-30T11:43:10.388Z,100799.48
2022-10-30T11:45:42.812Z,100797.84
2022-10-30T11:48:25.005Z,100801.34
2022-10-30T11:50:55.641Z,100803.61
2022-10-30T11:53:30.407Z,100798.87
2022-10-30T11:55:58.215Z,100801.87
2022-10-30T11:58:29.947Z,100802.10
2022-10-30T12:01:12.795Z,100801.17
2022-10-30T12:03:41.047Z,100795.95
2022-10-30T12:06:18.735Z,100793.17
2022-10-30T12:09:19.839Z,100788.60
2022-10-30T12:11:47.098Z,100777.55
2022-10-30T12:14:19.364Z,100777.58
2022-10-30T12:16:51.591Z,100777.81
2022-10-30T12:19:22.091Z,100780.21
2022-10-30T12:21:52.774Z,100775.22
2022-10-30T12:24:33.519Z,100780.92
2022-10-30T12:27:11.494Z,100782.57
2022-10-30T12:30:06.878Z,100786.71
2022-10-30T12:32:39.676Z,100780.20
2022-10-30T12:35:16.803Z,100783.24
2022-10-30T12:37:43.799Z,100779.22
2022-10-30T12:40:19.906Z,100777.98
2022-10-30T12:43:05.464Z,100781.08
2022-10-30T12:45:43.819Z,100781.41
2022-10-30T12:48:10.378Z,100778.42
2022-10-30T12:51:01.189Z,100776.02
2022-10-30T12:53:38.051Z,100772.69
2022-10-30T12:56:12.562Z,100766.66
2022-10-30T12:59:11.272Z,100761.85
2022-10-30T13:01:47.938Z,100761.92
2022-10-30T13:04:21.404Z,100762.56
2022-10-30T13:07:07.994Z,100759.52
2022-10-30T13:10:03.166Z,100761.50
2022-10-30T13:12:38.032Z,100752.91
2022-10-30T13:15:23.389Z,100747.27
2022-10-30T13:17:50.264Z,100747.02
2022-10-30T13:20:17.494Z,100742.59
2022-10-30T13:22:50.266Z,100740.02
2022-10-30T13:26:03.241Z,100740.80
2022-10-30T13:28:38.232Z,100736.09
2022-10-30T13:31:04.566Z,100740.57
2022-10-30T13:33:52.650Z,100754.59
2022-10-30T13:36:33.583Z,100752.22
2022-10-30T13:39:10.881Z,100744.30
2022-10-30T13:42:10.688Z,100737.92
2022-10-30T13:44:55.497Z,100737.61
2022-10-30T13:47:47.093Z,100738.27
2022-10-30T13:50:27.164Z,100735.89
2022-10-30T13:52:58.066Z,100737.89
2022-10-30T13:55:26.597Z,100733.77
2022-10-30T13:58:14.829Z,100728.63
2022-10-30T14:01:08.724Z,100727.48
2022-10-30T14:03:50.685Z,100730.98
2022-10-30T14:06:33.060Z,100733.32
2022-10-30T14:09:16.515Z,100736.96
2022-10-30T14:11:42.820Z,100733.28
2022-10-30T14:14:12.056Z,100737.65
2022-10-30T14:16:45.442Z,100736.17
2022-10-30T14:19:12.859Z,100732.14
2022-10-30T14:21:54.719Z,100729.59
2022-10-30T14:24:23.004Z,100730.91
2022-10-30T14:27:04.716Z,100729.13
2022-10-30T14:29:34.122Z,100725.67
2022-10-30T14:32:01.511Z,100723.97
2022-10-30T14:34:44.361Z,100731.61
2022-10-30T14:37:12.671Z,100727.48
2022-10-30T14:39:47.345Z,100727.33
2022-10-30T14:42:32.301Z,100725.41
2022-10-30T14:45:20.543Z,100732.54
2022-10-30T14:48:25.949Z,100744.05
2022-10-30T14:51:04.887Z,100740.66
2022-10-30T14:53:40.279Z,100741.01
2022-10-30T14:59:30.477Z,100731.48
2022-10-30T15:02:11.983Z,100729.83
2022-10-30T15:04:56.847Z,100726.94
2022-10-30T15:07:25.936Z,100721.27
2022-10-30T15:10:16.368Z,100714.38
2022-10-30T15:12:58.284Z,100727.27
2022-10-30T15:15:27.713Z,100720.54
2022-10-30T15:17:58.848Z,100717.58
2022-10-30T15:20:29.101Z,100713.96
2022-10-30T15:22:59.940Z,100711.47
2022-10-30T15:25:32.873Z,100722.59
2022-10-30T15:27:59.837Z,100736.91
2022-10-30T15:30:27.041Z,100729.02
2022-10-30T15:32:53.888Z,100722.59
2022-10-30T15:35:21.698Z,100725.14
2022-10-30T15:38:09.699Z,100751.56
2022-10-30T15:40:39.434Z,100737.56
2022-10-30T15:43:10.508Z,100739.47
2022-10-30T15:45:40.607Z,100738.45
2022-10-30T15:48:25.625Z,100742.23
2022-10-30T15:51:12.346Z,100733.93
2022-10-30T15:53:55.536Z,100711.86
2022-10-30T15:56:27.846Z,100709.96
2022-10-30T15:58:59.523Z,100707.27
2022-10-30T16:01:30.668Z,100725.55
2022-10-30T16:03:57.337Z,100743.64
2022-10-30T16:06:31.602Z,100742.91
2022-10-30T16:08:57.994Z,100735.89
2022-10-30T16:11:26.131Z,100732.58
2022-10-30T16:13:53.076Z,100731.19
2022-10-30T16:16:26.068Z,100713.75
2022-10-30T16:18:57.404Z,100709.92
2022-10-30T16:21:25.611Z,100709.38
2022-10-30T16:23:54.573Z,100709.80
2022-10-30T16:26:25.980Z,100718.94
2022-10-30T16:28:52.505Z,100728.35
2022-10-30T16:31:19.777Z,100728.57
2022-10-30T16:33:47.083Z,100734.06
2022-10-30T16:36:16.373Z,100742.23
2022-10-30T16:38:45.947Z,100735.07
2022-10-30T16:41:13.131Z,100734.41
2022-10-30T16:43:40.907Z,100734.31
2022-10-30T16:46:34.092Z,100737.58
2022-10-30T16:49:03.560Z,100734.55
2022-10-30T16:51:30.308Z,100731.84
2022-10-30T16:53:56.822Z,100729.92
2022-10-30T16:56:31.272Z,100730.88
2022-10-30T16:59:07.120Z,100728.94
2022-10-30T17:01:34.661Z,100730.72
2022-10-30T17:04:01.115Z,100726.27
2022-10-30T17:06:35.120Z,100726.39
2022-10-30T17:09:07.823Z,100728.36
2022-10-30T17:11:41.244Z,100730.13
2022-10-30T17:14:18.932Z,100737.27
2022-10-30T17:17:27.710Z,100737.30
2022-10-30T17:20:18.802Z,100740.54
2022-10-30T17:22:47.197Z,100739.50
2022-10-30T17:25:38.016Z,100742.91
2022-10-30T17:28:05.673Z,100743.13
2022-10-30T17:30:40.200Z,100747.26
2022-10-30T17:33:25.366Z,100749.69
2022-10-30T17:35:52.101Z,100751.55
2022-10-30T17:38:18.594Z,100750.45
2022-10-30T17:40:45.018Z,100752.30
2022-10-30T17:43:15.050Z,100754.27
2022-10-30T17:45:42.965Z,100752.42
2022-10-30T17:48:17.360Z,100752.27
2022-10-30T17:50:44.318Z,100754.92
2022-10-30T17:53:17.892Z,100753.80
2022-10-30T17:55:48.716Z,100753.40
2022-10-30T17:58:16.951Z,100752.98
2022-10-30T18:00:43.400Z,100754.04
2022-10-30T18:03:09.728Z,100748.25
2022-10-30T18:05:36.593Z,100750.90
2022-10-30T18:08:03.007Z,100749.35
2022-10-30T18:10:29.404Z,100749.45
2022-10-30T18:12:57.360Z,100750.41
2022-10-30T18:15:29.286Z,100745.89
2022-10-30T18:17:55.668Z,100743.16
2022-10-30T18:20:22.721Z,100740.48
2022-10-30T18:22:49.020Z,100739.73
2022-10-30T18:25:28.104Z,100741.08
2022-10-30T18:27:54.373Z,100741.27
2022-10-30T18:30:20.812Z,100745.32
2022-10-30T18:32:47.546Z,100743.11
2022-10-30T18:35:32.941Z,100745.92
2022-10-30T18:37:59.436Z,100748.42
2022-10-30T18:40:25.701Z,100752.19
2022-10-30T18:42:51.975Z,100755.72
2022-10-30T18:45:22.569Z,100754.06
2022-10-30T18:47:50.246Z,100754.86
2022-10-30T18:50:18.755Z,100752.61
2022-10-30T18:52:45.138Z,100756.56
2022-10-30T18:55:21.680Z,100756.45
2022-10-30T18:57:49.543Z,100752.94
2022-10-30T19:00:18.775Z,100750.92
2022-10-30T19:02:45.788Z,100747.20
2022-10-30T19:05:26.211Z,100744.31
2022-10-30T19:07:52.936Z,100747.98
2022-10-30T19:10:19.204Z,100745.70
2022-10-30T19:13:04.165Z,100747.95
2022-10-30T19:15:34.488Z,100746.08
2022-10-30T19:18:02.411Z,100747.43
2022-10-30T19:20:44.017Z,100748.06
2022-10-30T19:23:20.118Z,100744.90
2022-10-30T19:25:47.077Z,100748.12
2022-10-30T19:28:15.225Z,100746.83
2022-10-30T19:30:49.460Z,100744.06
2022-10-30T19:33:21.528Z,100746.53
2022-10-30T19:36:00.380Z,100748.66
2022-10-30T19:38:27.836Z,100748.69
2022-10-30T19:40:54.175Z,100751.59
2022-10-30T19:43:20.494Z,100747.34
2022-10-30T19:45:51.252Z,100747.69
2022-10-30T19:48:40.414Z,100748.41
2022-10-30T19:51:08.660Z,100745.19
2022-10-30T19:53:35.141Z,100745.67
2022-10-30T19:56:01.421Z,100750.48
2022-10-30T19:58:27.702Z,100743.24
2022-10-30T20:00:54.175Z,100746.80
2022-10-30T20:03:21.035Z,100750.14
2022-10-30T20:05:49.778Z,100748.14
2022-10-30T20:08:21.645Z,100755.77
2022-10-30T20:10:56.284Z,100754.27
2022-10-30T20:13:24.521Z,100760.88
2022-10-30T20:15:52.497Z,100759.00
2022-10-30T20:18:21.540Z,100762.28
2022-10-30T20:20:54.219Z,100760.88
2022-10-30T20:23:22.246Z,100765.77
2022-10-30T20:25:54.460Z,100765.15
2022-10-30T20:28:23.422Z,100765.27
2022-10-30T20:30:50.716Z,100767.73
2022-10-30T20:33:18.888Z,100766.70
2022-10-30T20:35:46.699Z,100767.94
2022-10-30T20:38:17.253Z,100768.17
2022-10-30T20:40:44.876Z,100768.69
2022-10-30T20:43:20.090Z,100768.26
2022-10-30T20:45:47.059Z,100771.75
2022-10-30T20:48:13.919Z,100769.67
2022-10-30T20:50:41.007Z,100775.56
2022-10-30T20:53:11.620Z,100779.48
2022-10-30T20:55:38.265Z,100775.98
2022-10-30T20:58:05.563Z,100778.41
2022-10-30T21:00:32.618Z,100777.92
2022-10-30T21:03:01.653Z,100778.48
2022-10-30T21:05:43.125Z,100779.39
2022-10-30T21:08:11.556Z,100777.85
2022-10-30T21:10:38.818Z,100775.59
2022-10-30T21:13:08.909Z,100774.62
2022-10-30T21:15:41.759Z,100776.06
2022-10-30T21:18:09.053Z,100773.36
2022-10-30T21:20:36.520Z,100775.50
2022-10-30T21:23:03.147Z,100770.79
2022-10-30T21:25:31.502Z,100767.31
2022-10-30T21:27:57.981Z,100774.01
2022-10-30T21:30:24.421Z,100770.50
2022-10-30T21:32:50.712Z,100766.40
2022-10-30T21:35:17.243Z,100765.19
2022-10-30T21:37:43.478Z,100766.63
2022-10-30T21:40:10.307Z,100765.79
2022-10-30T21:42:36.540Z,100773.68
2022-10-30T21:45:03.503Z,100773.62
2022-10-30T21:47:29.835Z,100770.20
2022-10-30T21:49:56.098Z,100769.02
2022-10-30T21:52:22.400Z,100768.34
2022-10-30T21:54:48.604Z,100768.31
2022-10-30T21:57:14.872Z,100768.06
2022-10-30T21:59:41.137Z,100768.34
2022-10-30T22:02:12.828Z,100765.29
2022-10-30T22:04:39.091Z,100767.17
2022-10-30T22:07:05.363Z,100763.89
2022-10-30T22:09:31.787Z,100760.61
2022-10-30T22:11:58.090Z,100755.39
2022-10-30T22:14:24.851Z,100757.40
2022-10-30T22:16:51.105Z,100755.92
2022-10-30T22:19:17.480Z,100753.52
2022-10-30T22:21:43.692Z,100753.61
2022-10-30T22:24:12.290Z,100755.20
2022-10-30T22:26:38.617Z,100756.21
2022-10-30T22:29:04.923Z,100754.66
2022-10-30T22:31:31.208Z,100754.03
2022-10-30T22:34:00.594Z,100752.82
2022-10-30T22:36:30.471Z,100749.67
2022-10-30T22:39:02.960Z,100747.87
2022-10-30T22:41:34.424Z,100747.99
2022-10-30T22:44:06.899Z,100747.60
2022-10-30T22:46:33.284Z,100743.17
2022-10-30T22:48:59.665Z,100746.02
2022-10-30T22:51:26.048Z,100747.70
2022-10-30T22:53:57.884Z,100748.27
2022-10-30T22:56:27.083Z,100747.47
2022-10-30T22:58:53.887Z,100752.45
2022-10-30T23:01:28.795Z,100753.51
2022-10-30T23:03:56.820Z,100756.42
2022-10-30T23:06:23.680Z,100751.30
2022-10-30T23:08:55.123Z,100751.99
2022-10-30T23:11:22.036Z,100751.30
2022-10-30T23:13:48.829Z,100749.88
2022-10-30T23:16:18.078Z,100754.34
2022-10-30T23:18:45.580Z,100755.88
2022-10-30T23:21:15.256Z,100761.82
2022-10-30T23:23:42.588Z,100765.54
2022-10-30T23:26:14.965Z,100764.41
2022-10-30T23:28:41.562Z,100759.55
2022-10-30T23:31:09.313Z,100759.17
2022-10-30T23:33:35.733Z,100762.61
2022-10-30T23:36:03.506Z,100763.58
2022-10-30T23:38:30.444Z,100765.61
2022-10-30T23:40:56.849Z,100768.85
2022-10-30T23:43:23.220Z,100770.92
2022-10-30T23:45:49.612Z,100773.98
2022-10-30T23:48:15.935Z,100771.50
2022-10-30T23:50:42.151Z,100769.77
2022-10-30T23:53:08.427Z,100769.71
2022-10-30T23:55:34.795Z,100769.25
2022-10-30T23:58:01.354Z,100772.05
